createdAt,value
2023-05-26T00:03:37.495Z,6.85
2023-05-26T00:08:31.120Z,7.07
2023-05-26T00:13:25.649Z,6.85
2023-05-26T00:18:21.962Z,6.28
2023-05-26T00:23:15.354Z,6.80
2023-05-26T00:28:08.526Z,6.28
2023-05-26T00:33:03.704Z,6.30
2023-05-26T00:37:57.247Z,6.93
2023-05-26T00:42:50.601Z,6.72
2023-05-26T00:47:43.866Z,6.97
2023-05-26T00:52:38.869Z,5.90
2023-05-26T00:57:32.349Z,6.65
2023-05-26T01:02:26.776Z,6.28
2023-05-26T01:07:20.164Z,6.10
2023-05-26T01:12:22.623Z,7.03
2023-05-26T01:17:22.501Z,6.55
2023-05-26T01:22:25.221Z,6.93
2023-05-26T01:27:34.481Z,6.07
2023-05-26T01:32:29.590Z,6.18
2023-05-26T01:37:22.824Z,6.57
2023-05-26T01:42:30.665Z,7.25
2023-05-26T01:47:26.709Z,6.63
2023-05-26T01:52:22.870Z,6.80
2023-05-26T01:57:17.872Z,7.10
2023-05-26T02:02:11.267Z,6.82
2023-05-26T02:07:08.368Z,7.00
2023-05-26T02:12:04.326Z,6.80
2023-05-26T02:16:57.847Z,6.72
2023-05-26T02:21:51.198Z,7.35
2023-05-26T02:26:46.002Z,7.20
2023-05-26T02:31:43.296Z,7.47
2023-05-26T02:36:37.321Z,7.18
2023-05-26T02:41:30.712Z,7.38
2023-05-26T02:46:24.020Z,7.43
2023-05-26T02:51:18.858Z,7.32
2023-05-26T02:56:12.056Z,7.00
2023-05-26T03:01:05.793Z,6.70
2023-05-26T03:06:00.019Z,7.18
2023-05-26T03:11:10.567Z,6.82
2023-05-26T03:16:07.387Z,6.82
2023-05-26T03:21:00.665Z,7.40
2023-05-26T03:25:55.867Z,6.72
2023-05-26T03:30:50.812Z,7.25
2023-05-26T03:35:44.184Z,6.88
2023-05-26T03:40:37.775Z,6.53
2023-05-26T03:45:33.720Z,7.53
2023-05-26T03:50:27.824Z,7.20
2023-05-26T03:55:21.488Z,7.80
2023-05-26T04:00:17.456Z,6.85
2023-05-26T04:05:12.188Z,8.18
2023-05-26T04:10:07.043Z,7.63
2023-05-26T04:15:00.222Z,7.72
2023-05-26T04:19:54.051Z,7.97
2023-05-26T04:24:48.872Z,7.18
2023-05-26T04:29:49.723Z,7.60
2023-05-26T04:35:09.641Z,7.40
2023-05-26T04:40:08.442Z,7.13
2023-05-26T04:45:01.864Z,7.68
2023-05-26T04:49:56.903Z,7.75
2023-05-26T04:54:52.984Z,7.68
2023-05-26T04:59:48.532Z,7.78
2023-05-26T05:04:46.835Z,7.45
2023-05-26T05:09:40.199Z,7.20
2023-05-26T05:14:34.152Z,8.10
2023-05-26T05:19:28.919Z,7.60
2023-05-26T05:24:22.179Z,7.63
2023-05-26T05:29:16.673Z,8.30
2023-05-26T05:34:14.811Z,9.48
2023-05-26T05:39:11.370Z,8.07
2023-05-26T05:44:06.334Z,8.57
2023-05-26T05:48:59.633Z,7.88
2023-05-26T05:54:00.330Z,8.48
2023-05-26T05:58:56.822Z,8.90
2023-05-26T06:03:50.591Z,7.93
2023-05-26T06:08:45.946Z,7.97
2023-05-26T06:13:39.878Z,7.43
2023-05-26T06:18:34.997Z,8.15
2023-05-26T06:23:30.268Z,7.93
2023-05-26T06:28:24.097Z,8.10
2023-05-26T06:33:17.481Z,7.53
2023-05-26T06:38:12.292Z,7.03
2023-05-26T06:43:05.591Z,8.35
2023-05-26T06:47:59.357Z,7.40
2023-05-26T06:52:53.417Z,8.30
2023-05-26T06:57:47.715Z,7.70
2023-05-26T07:02:44.544Z,7.75
2023-05-26T07:07:51.213Z,8.73
2023-05-26T07:12:44.753Z,7.50
2023-05-26T07:17:53.698Z,7.78
2023-05-26T07:22:47.365Z,7.55
2023-05-26T07:27:49.793Z,7.40
2023-05-26T07:32:43.277Z,7.80
2023-05-26T07:37:41.482Z,7.32
2023-05-26T07:42:35.657Z,7.57
2023-05-26T07:47:32.567Z,6.68
2023-05-26T07:52:26.208Z,6.65
2023-05-26T07:57:29.407Z,6.97
2023-05-26T08:02:23.488Z,6.70
2023-05-26T08:07:24.382Z,6.53
2023-05-26T08:12:17.789Z,6.40
2023-05-26T08:17:12.414Z,5.30
2023-05-26T08:22:06.658Z,5.90
2023-05-26T08:26:59.890Z,6.15
2023-05-26T08:31:53.300Z,5.80
2023-05-26T08:36:48.076Z,5.75
2023-05-26T08:41:49.520Z,5.63
2023-05-26T08:46:42.868Z,6.03
2023-05-26T08:51:38.570Z,5.60
2023-05-26T08:56:35.262Z,4.78
2023-05-26T09:01:28.687Z,5.13
2023-05-26T09:06:22.563Z,4.15
2023-05-26T09:11:23.787Z,4.18
2023-05-26T09:16:18.481Z,4.10
2023-05-26T09:21:11.635Z,5.00
2023-05-26T09:26:08.551Z,4.47
2023-05-26T09:31:01.706Z,5.70
2023-05-26T09:35:56.271Z,4.10
2023-05-26T09:40:50.905Z,4.43
2023-05-26T09:45:44.175Z,4.97
2023-05-26T09:50:38.978Z,4.40
2023-05-26T09:55:33.758Z,4.45
2023-05-26T10:00:27.947Z,4.47
2023-05-26T10:05:23.622Z,3.83
2023-05-26T10:10:18.295Z,4.78
2023-05-26T10:15:13.308Z,4.55
2023-05-26T10:20:08.346Z,4.13
2023-05-26T10:25:05.583Z,4.18
2023-05-26T10:30:06.285Z,4.50
2023-05-26T10:35:00.886Z,4.57
2023-05-26T10:39:54.319Z,4.50
2023-05-26T10:44:50.136Z,4.63
2023-05-26T10:49:43.825Z,4.90
2023-05-26T10:54:38.388Z,5.03
2023-05-26T10:59:33.237Z,4.50
2023-05-26T11:04:42.069Z,4.40
2023-05-26T11:09:35.222Z,4.15
2023-05-26T11:14:31.384Z,4.45
2023-05-26T11:19:33.737Z,4.25
2023-05-26T11:24:27.887Z,4.53
2023-05-26T11:29:24.196Z,4.50
2023-05-26T11:34:18.909Z,4.40
2023-05-26T11:39:12.104Z,4.50
2023-05-26T11:44:09.568Z,4.97
2023-05-26T11:49:02.838Z,4.90
2023-05-26T11:53:58.630Z,5.22
2023-05-26T11:58:56.823Z,4.35
2023-05-26T12:03:52.848Z,3.83
2023-05-26T12:08:53.477Z,3.90
2023-05-26T12:13:52.608Z,3.78
2023-05-26T12:18:46.095Z,3.85
2023-05-26T12:23:39.889Z,3.58
2023-05-26T12:28:32.989Z,3.55
2023-05-26T12:33:29.347Z,4.57
2023-05-26T12:38:23.186Z,4.07
2023-05-26T12:43:17.808Z,4.53
2023-05-26T12:48:11.227Z,4.38
2023-05-26T12:53:05.942Z,4.40
2023-05-26T12:57:59.216Z,4.40
2023-05-26T13:02:52.509Z,3.85
2023-05-26T13:07:45.863Z,4.38
2023-05-26T13:12:42.685Z,4.47
2023-05-26T13:17:36.220Z,4.47
2023-05-26T13:22:29.537Z,4.20
2023-05-26T13:27:22.745Z,3.70
2023-05-26T13:32:17.832Z,4.07
2023-05-26T13:37:11.093Z,4.63
2023-05-26T13:42:04.997Z,4.45
2023-05-26T13:46:58.322Z,3.83
2023-05-26T13:51:53.013Z,4.07
2023-05-26T13:56:46.804Z,4.32
2023-05-26T14:01:40.991Z,3.85
2023-05-26T14:06:37.470Z,4.22
2023-05-26T14:11:32.789Z,4.37
2023-05-26T14:16:26.039Z,4.13
2023-05-26T14:21:42.669Z,4.47
2023-05-26T14:26:33.910Z,4.10
2023-05-26T14:31:27.148Z,4.00
2023-05-26T14:36:20.392Z,4.50
2023-05-26T14:41:13.600Z,4.22
2023-05-26T14:46:08.607Z,4.15
2023-05-26T14:51:02.685Z,4.70
2023-05-26T14:55:56.167Z,4.50
2023-05-26T15:00:49.352Z,4.40
2023-05-26T15:05:44.039Z,4.22
2023-05-26T15:10:37.317Z,4.40
2023-05-26T15:15:32.602Z,4.65
2023-05-26T15:20:26.761Z,4.40
2023-05-26T15:25:21.523Z,4.28
2023-05-26T15:35:13.391Z,4.00
2023-05-26T15:40:08.472Z,4.45
2023-05-26T15:45:05.849Z,4.38
2023-05-26T15:49:58.991Z,4.28
2023-05-26T15:54:52.239Z,3.80
2023-05-26T15:59:45.593Z,4.25
2023-05-26T16:04:40.327Z,4.18
2023-05-26T16:09:33.625Z,4.07
2023-05-26T16:14:26.871Z,4.95
2023-05-26T16:19:20.047Z,4.93
2023-05-26T16:24:14.616Z,3.90
2023-05-26T16:29:07.798Z,4.10
2023-05-26T16:34:01.088Z,4.40
2023-05-26T16:38:54.499Z,3.95
2023-05-26T16:43:49.417Z,4.20
2023-05-26T16:48:42.823Z,3.97
2023-05-26T16:53:36.074Z,4.95
2023-05-26T16:58:29.344Z,5.07
2023-05-26T17:03:24.002Z,4.65
2023-05-26T17:08:17.348Z,4.45
2023-05-26T17:13:10.885Z,4.78
2023-05-26T17:18:04.834Z,4.65
2023-05-26T17:22:59.586Z,5.18
2023-05-26T17:27:52.821Z,5.10
2023-05-26T17:32:46.131Z,5.30
2023-05-26T17:37:39.298Z,5.88
2023-05-26T17:42:34.153Z,5.65
2023-05-26T17:47:28.047Z,5.00
2023-05-26T17:52:21.918Z,4.97
2023-05-26T17:57:15.161Z,4.40
2023-05-26T18:02:10.551Z,4.47
2023-05-26T18:07:03.829Z,4.65
2023-05-26T18:11:57.017Z,4.45
2023-05-26T18:16:50.346Z,4.35
2023-05-26T18:21:45.017Z,4.78
2023-05-26T18:26:38.193Z,4.65
2023-05-26T18:31:31.881Z,5.38
2023-05-26T18:36:25.061Z,4.97
2023-05-26T18:41:20.027Z,5.07
2023-05-26T18:46:13.586Z,5.63
2023-05-26T18:51:07.585Z,5.00
2023-05-26T18:56:01.068Z,5.50
2023-05-26T19:00:56.213Z,4.82
2023-05-26T19:05:52.134Z,5.53
2023-05-26T19:10:45.362Z,5.78
2023-05-26T19:15:38.551Z,5.25
2023-05-26T19:20:33.415Z,5.90
2023-05-26T19:25:28.236Z,5.38
2023-05-26T19:30:22.006Z,6.15
2023-05-26T19:35:16.094Z,6.88
2023-05-26T19:40:11.436Z,6.20
2023-05-26T19:45:05.131Z,6.65
2023-05-26T19:49:59.356Z,7.03
2023-05-26T19:54:52.550Z,6.95
2023-05-26T19:59:47.183Z,6.75
2023-05-26T20:04:40.384Z,8.30
2023-05-26T20:09:34.253Z,7.10
2023-05-26T20:14:27.455Z,6.65
2023-05-26T20:19:22.204Z,7.07
2023-05-26T20:24:15.601Z,6.25
2023-05-26T20:29:08.784Z,6.13
2023-05-26T20:34:01.909Z,6.10
2023-05-26T20:38:56.773Z,6.50
2023-05-26T20:43:50.031Z,6.85
2023-05-26T20:48:44.407Z,6.90
2023-05-26T20:53:37.743Z,5.30
2023-05-26T20:58:32.268Z,5.38
2023-05-26T21:03:25.901Z,5.38
2023-05-26T21:08:19.257Z,6.40
2023-05-26T21:13:12.450Z,5.70
2023-05-26T21:18:07.134Z,6.10
2023-05-26T21:23:00.289Z,6.28
2023-05-26T21:27:53.638Z,6.35
2023-05-26T21:32:46.955Z,7.22
2023-05-26T21:37:41.583Z,6.43
2023-05-26T21:42:34.723Z,7.25
2023-05-26T21:47:27.925Z,7.13
2023-05-26T21:52:21.141Z,6.85
2023-05-26T21:57:15.812Z,7.15
2023-05-26T22:02:09.200Z,6.55
2023-05-26T22:07:02.383Z,6.90
2023-05-26T22:11:55.819Z,6.22
2023-05-26T22:16:50.463Z,6.53
2023-05-26T22:21:43.605Z,7.10
2023-05-26T22:26:36.784Z,7.28
2023-05-26T22:31:29.962Z,7.22
2023-05-26T22:36:24.511Z,7.65
2023-05-26T22:41:17.776Z,7.20
2023-05-26T22:46:11.082Z,7.43
2023-05-26T22:51:04.563Z,8.07
2023-05-26T22:56:04.836Z,8.15
2023-05-26T23:01:05.834Z,7.03
2023-05-26T23:05:59.235Z,8.30
2023-05-26T23:10:52.615Z,7.50
2023-05-26T23:15:47.092Z,6.88
2023-05-26T23:20:40.292Z,7.30
2023-05-26T23:25:33.585Z,7.22
2023-05-26T23:30:27.877Z,7.82
2023-05-26T23:35:22.393Z,7.30
2023-05-26T23:40:15.596Z,7.25
2023-05-26T23:45:10.023Z,7.05
2023-05-26T23:50:03.636Z,7.75
2023-05-26T23:54:58.195Z,7.53
2023-05-26T23:59:51.392Z,7.28
